sensor_id;sensor_type;location;lat;lon;timestamp;P1;durP1;ratioP1;P2;durP2;ratioP2
3401;SDS011;1714;49.756;8.610;2023-04-24T03:32:50;4.72;;;1.30;;
3401;SDS011;1714;49.756;8.610;2023-04-24T03:43:31;2.70;;;1.38;;
3401;SDS011;1714;49.756;8.610;2023-04-24T03:54:08;2.50;;;1.67;;
3401;SDS011;1714;49.756;8.610;2023-04-24T04:04:47;2.25;;;1.65;;
3401;SDS011;1714;49.756;8.610;2023-04-24T04:15:23;2.20;;;1.20;;
3401;SDS011;1714;49.756;8.610;2023-04-24T04:25:59;3.47;;;1.65;;
3401;SDS011;1714;49.756;8.610;2023-04-24T04:36:47;4.03;;;2.97;;
3401;SDS011;1714;49.756;8.610;2023-04-24T04:47:35;4.50;;;2.05;;
3401;SDS011;1714;49.756;8.610;2023-04-24T04:58:11;6.05;;;2.13;;
3401;SDS011;1714;49.756;8.610;2023-04-24T05:08:47;3.03;;;2.40;;
3401;SDS011;1714;49.756;8.610;2023-04-24T05:19:36;4.23;;;2.63;;
3401;SDS011;1714;49.756;8.610;2023-04-24T05:30:16;3.22;;;2.10;;
3401;SDS011;1714;49.756;8.610;2023-04-24T05:40:52;3.78;;;2.20;;
3401;SDS011;1714;49.756;8.610;2023-04-24T05:51:28;3.78;;;2.00;;
3401;SDS011;1714;49.756;8.610;2023-04-24T06:02:04;2.17;;;1.98;;
3401;SDS011;1714;49.756;8.610;2023-04-24T06:12:40;5.15;;;1.80;;
3401;SDS011;1714;49.756;8.610;2023-04-24T06:23:22;3.78;;;2.80;;
3401;SDS011;1714;49.756;8.610;2023-04-24T06:33:58;4.45;;;2.95;;
3401;SDS011;1714;49.756;8.610;2023-04-24T06:44:34;4.03;;;3.03;;
3401;SDS011;1714;49.756;8.610;2023-04-24T06:55:15;3.08;;;2.65;;
3401;SDS011;1714;49.756;8.610;2023-04-24T07:05:51;6.05;;;3.65;;
3401;SDS011;1714;49.756;8.610;2023-04-24T07:16:27;5.70;;;2.83;;
3401;SDS011;1714;49.756;8.610;2023-04-24T07:27:04;2.65;;;2.17;;
3401;SDS011;1714;49.756;8.610;2023-04-24T07:37:39;2.75;;;2.33;;
3401;SDS011;1714;49.756;8.610;2023-04-24T07:48:20;3.67;;;1.85;;
3401;SDS011;1714;49.756;8.610;2023-04-24T07:58:57;6.28;;;2.03;;
3401;SDS011;1714;49.756;8.610;2023-04-24T08:09:32;5.25;;;1.08;;
3401;SDS011;1714;49.756;8.610;2023-04-24T08:20:09;1.25;;;1.15;;
3401;SDS011;1714;49.756;8.610;2023-04-24T08:30:49;2.70;;;1.70;;
3401;SDS011;1714;49.756;8.610;2023-04-24T08:41:29;4.45;;;2.10;;
3401;SDS011;1714;49.756;8.610;2023-04-24T08:52:05;2.30;;;1.50;;
3401;SDS011;1714;49.756;8.610;2023-04-24T09:02:41;3.83;;;1.75;;
3401;SDS011;1714;49.756;8.610;2023-04-24T09:13:21;2.95;;;1.50;;
3401;SDS011;1714;49.756;8.610;2023-04-24T09:23:57;5.20;;;1.95;;
3401;SDS011;1714;49.756;8.610;2023-04-24T09:34:34;2.25;;;1.75;;
3401;SDS011;1714;49.756;8.610;2023-04-24T09:45:10;2.22;;;1.95;;
3401;SDS011;1714;49.756;8.610;2023-04-24T09:55:50;2.55;;;2.03;;
3401;SDS011;1714;49.756;8.610;2023-04-24T10:06:34;3.60;;;1.75;;
3401;SDS011;1714;49.756;8.610;2023-04-24T10:17:10;1.30;;;1.20;;
3401;SDS011;1714;49.756;8.610;2023-04-24T10:27:47;2.65;;;1.48;;
3401;SDS011;1714;49.756;8.610;2023-04-24T10:38:25;4.03;;;1.77;;
3401;SDS011;1714;49.756;8.610;2023-04-24T10:49:06;4.57;;;2.17;;
3401;SDS011;1714;49.756;8.610;2023-04-24T10:59:45;2.90;;;2.45;;
3401;SDS011;1714;49.756;8.610;2023-04-24T11:10:25;3.10;;;1.50;;
3401;SDS011;1714;49.756;8.610;2023-04-24T11:21:09;5.00;;;1.83;;
3401;SDS011;1714;49.756;8.610;2023-04-24T11:31:48;4.20;;;2.70;;
3401;SDS011;1714;49.756;8.610;2023-04-24T11:42:26;5.95;;;2.30;;
3401;SDS011;1714;49.756;8.610;2023-04-24T11:53:02;4.40;;;2.00;;
3401;SDS011;1714;49.756;8.610;2023-04-24T12:03:39;2.90;;;2.50;;
3401;SDS011;1714;49.756;8.610;2023-04-24T12:14:18;4.63;;;3.10;;
3401;SDS011;1714;49.756;8.610;2023-04-24T12:25:03;5.93;;;2.63;;
3401;SDS011;1714;49.756;8.610;2023-04-24T12:35:40;5.95;;;2.95;;
3401;SDS011;1714;49.756;8.610;2023-04-24T12:46:16;7.85;;;3.08;;
3401;SDS011;1714;49.756;8.610;2023-04-24T12:56:55;3.90;;;3.03;;
3401;SDS011;1714;49.756;8.610;2023-04-24T13:07:32;4.55;;;2.70;;
3401;SDS011;1714;49.756;8.610;2023-04-24T13:18:08;5.10;;;2.22;;
3401;SDS011;1714;49.756;8.610;2023-04-24T13:28:44;5.03;;;2.45;;
3401;SDS011;1714;49.756;8.610;2023-04-24T13:39:20;3.42;;;2.35;;
3401;SDS011;1714;49.756;8.610;2023-04-24T13:49:56;4.82;;;2.75;;
3401;SDS011;1714;49.756;8.610;2023-04-24T14:00:32;2.53;;;2.00;;
3401;SDS011;1714;49.756;8.610;2023-04-24T14:11:07;3.75;;;2.20;;
3401;SDS011;1714;49.756;8.610;2023-04-24T14:21:43;4.78;;;2.22;;
3401;SDS011;1714;49.756;8.610;2023-04-24T14:32:19;3.33;;;2.30;;
3401;SDS011;1714;49.756;8.610;2023-04-24T14:42:55;5.32;;;2.00;;
3401;SDS011;1714;49.756;8.610;2023-04-24T14:53:32;3.72;;;2.00;;
3401;SDS011;1714;49.756;8.610;2023-04-24T15:04:08;3.72;;;2.08;;
3401;SDS011;1714;49.756;8.610;2023-04-24T15:14:44;3.92;;;2.30;;
3401;SDS011;1714;49.756;8.610;2023-04-24T15:25:20;2.85;;;1.58;;
3401;SDS011;1714;49.756;8.610;2023-04-24T15:35:55;2.72;;;1.40;;
3401;SDS011;1714;49.756;8.610;2023-04-24T15:46:33;1.92;;;1.40;;
3401;SDS011;1714;49.756;8.610;2023-04-24T15:57:10;3.10;;;2.00;;
3401;SDS011;1714;49.756;8.610;2023-04-24T16:07:47;6.03;;;2.88;;
3401;SDS011;1714;49.756;8.610;2023-04-24T16:18:23;5.97;;;2.88;;
3401;SDS011;1714;49.756;8.610;2023-04-24T16:28:59;4.78;;;2.83;;
3401;SDS011;1714;49.756;8.610;2023-04-24T16:39:34;6.07;;;3.53;;
3401;SDS011;1714;49.756;8.610;2023-04-24T16:50:10;4.22;;;2.30;;
3401;SDS011;1714;49.756;8.610;2023-04-24T17:00:46;3.55;;;2.63;;
3401;SDS011;1714;49.756;8.610;2023-04-24T17:11:22;5.50;;;3.13;;
3401;SDS011;1714;49.756;8.610;2023-04-24T17:21:58;5.10;;;2.70;;
3401;SDS011;1714;49.756;8.610;2023-04-24T17:32:40;4.00;;;2.60;;
3401;SDS011;1714;49.756;8.610;2023-04-24T17:43:16;4.15;;;2.60;;
3401;SDS011;1714;49.756;8.610;2023-04-24T17:53:52;5.28;;;3.13;;
3401;SDS011;1714;49.756;8.610;2023-04-24T18:04:28;4.15;;;3.67;;
3401;SDS011;1714;49.756;8.610;2023-04-24T18:15:04;6.15;;;4.65;;
3401;SDS011;1714;49.756;8.610;2023-04-24T18:25:49;4.03;;;3.22;;
3401;SDS011;1714;49.756;8.610;2023-04-24T18:36:25;2.97;;;2.70;;
3401;SDS011;1714;49.756;8.610;2023-04-24T18:47:00;5.20;;;3.38;;
3401;SDS011;1714;49.756;8.610;2023-04-24T18:57:36;4.47;;;3.90;;
3401;SDS011;1714;49.756;8.610;2023-04-24T19:08:11;6.05;;;4.20;;
3401;SDS011;1714;49.756;8.610;2023-04-24T19:18:47;5.80;;;4.20;;
3401;SDS011;1714;49.756;8.610;2023-04-24T19:29:23;5.63;;;4.70;;
3401;SDS011;1714;49.756;8.610;2023-04-24T19:39:59;7.15;;;4.07;;
3401;SDS011;1714;49.756;8.610;2023-04-24T19:50:35;5.78;;;3.90;;
3401;SDS011;1714;49.756;8.610;2023-04-24T20:01:11;5.13;;;3.92;;
3401;SDS011;1714;49.756;8.610;2023-04-24T20:11:47;6.00;;;4.53;;
3401;SDS011;1714;49.756;8.610;2023-04-24T20:22:25;7.25;;;4.72;;
3401;SDS011;1714;49.756;8.610;2023-04-24T20:33:01;5.90;;;4.18;;
3401;SDS011;1714;49.756;8.610;2023-04-24T20:43:38;8.88;;;4.95;;
3401;SDS011;1714;49.756;8.610;2023-04-24T20:54:14;5.32;;;3.60;;
3401;SDS011;1714;49.756;8.610;2023-04-24T21:04:50;7.03;;;4.00;;
3401;SDS011;1714;49.756;8.610;2023-04-24T21:15:26;5.70;;;4.50;;
3401;SDS011;1714;49.756;8.610;2023-04-24T21:26:02;6.10;;;4.43;;
